Time;durP1;ratioP1;P1;durP2;ratioP2;P2;SDS_P1;SDS_P2;PMS_P1;PMS_P2;Temp;Humidity;BMP_temperature;BMP_pressure;BME280_temperature;BME280_humidity;BME280_pressure;Samples;Min_cycle;Max_cycle;Signal;HPM_P1;HPM_P2
2022/06/17 00:00:53;;;;;;;4.40;1.60;;;;;;;;;;4992112;28;20121;-72
2022/06/17 00:03:19;;;;;;;3.97;1.50;;;;;;;;;;4993391;28;20026;-71
2022/06/17 00:05:46;;;;;;;2.90;1.50;;;;;;;;;;4992044;28;20392;-66
2022/06/17 00:08:18;;;;;;;3.15;1.67;;;;;;;;;;4993382;28;20022;-73
2022/06/17 00:10:44;;;;;;;2.70;1.60;;;;;;;;;;4991919;28;20069;-69
2022/06/17 00:13:15;;;;;;;3.92;1.70;;;;;;;;;;4993494;28;20104;-67
2022/06/17 00:15:41;;;;;;;2.97;1.60;;;;;;;;;;4994409;28;20137;-68
2022/06/17 00:18:07;;;;;;;2.63;1.63;;;;;;;;;;4997049;28;20086;-70
2022/06/17 00:20:34;;;;;;;3.97;1.70;;;;;;;;;;4997336;28;20473;-73
2022/06/17 00:23:01;;;;;;;2.45;1.35;;;;;;;;;;4996779;28;20034;-69
2022/06/17 00:25:33;;;;;;;5.20;1.88;;;;;;;;;;4997240;28;20121;-66
2022/06/17 00:27:59;;;;;;;3.05;1.42;;;;;;;;;;4995899;28;20109;-70
2022/06/17 00:30:28;;;;;;;6.68;1.70;;;;;;;;;;4997232;28;20101;-72
2022/06/17 00:33:01;;;;;;;1.70;1.27;;;;;;;;;;4997147;28;20110;-70
2022/06/17 00:35:35;;;;;;;3.90;1.52;;;;;;;;;;4995836;28;20057;-71
2022/06/17 00:38:02;;;;;;;3.22;1.70;;;;;;;;;;4996969;28;20379;-67
2022/06/17 00:40:31;;;;;;;4.72;1.88;;;;;;;;;;4996914;28;20106;-71
2022/06/17 00:43:02;;;;;;;2.67;1.95;;;;;;;;;;4997028;28;20032;-71
2022/06/17 00:45:39;;;;;;;;;;;;;;;;;;4997186;28;20026;-70
2022/06/17 00:48:27;;;;;;;4.53;1.98;;;;;;;;;;4996959;28;19913;-72
2022/06/17 00:50:57;;;;;;;8.50;2.25;;;;;;;;;;4997157;28;20113;-71
2022/06/17 00:53:27;;;;;;;3.72;2.28;;;;;;;;;;4996546;28;20041;-71
2022/06/17 00:56:00;;;;;;;6.63;2.45;;;;;;;;;;4996656;28;20026;-72
2022/06/17 00:58:58;;;;;;;5.25;2.20;;;;;;;;;;4995344;28;20042;-70
2022/06/17 01:01:27;;;;;;;4.40;1.98;;;;;;;;;;4996369;28;20050;-72
2022/06/17 01:03:57;;;;;;;5.35;2.50;;;;;;;;;;4996492;28;20034;-72
2022/06/17 01:06:30;;;;;;;5.05;2.40;;;;;;;;;;4996303;28;20384;-71
2022/06/17 01:12:21;;;;;;;4.50;2.38;;;;;;;;;;4996394;28;20084;-71
2022/06/17 01:14:47;;;;;;;3.90;2.53;;;;;;;;;;4996260;28;20468;-69
2022/06/17 01:17:16;;;;;;;5.53;3.05;;;;;;;;;;4995844;28;20049;-70
2022/06/17 01:19:53;;;;;;;4.65;2.47;;;;;;;;;;4996212;28;20030;-69
2022/06/17 01:22:28;;;;;;;5.43;2.63;;;;;;;;;;4996101;28;20108;-65
2022/06/17 01:24:57;;;;;;;4.18;2.50;;;;;;;;;;4996002;28;20034;-69
2022/06/17 01:27:25;;;;;;;5.55;2.72;;;;;;;;;;4995867;28;20026;-66
2022/06/17 01:29:51;;;;;;;6.15;2.65;;;;;;;;;;4996228;28;20388;-65
2022/06/17 01:32:19;;;;;;;4.10;2.45;;;;;;;;;;4996487;28;20033;-68
2022/06/17 01:34:45;;;;;;;6.03;3.10;;;;;;;;;;4996003;28;20391;-70
2022/06/17 01:37:12;;;;;;;5.78;2.65;;;;;;;;;;4995743;28;20106;-70
2022/06/17 01:39:40;;;;;;;4.75;2.65;;;;;;;;;;4996045;28;20022;-71
2022/06/17 01:42:07;;;;;;;7.15;2.78;;;;;;;;;;4995911;28;20022;-65
2022/06/17 01:44:35;;;;;;;7.65;3.00;;;;;;;;;;4995673;28;20049;-72
2022/06/17 01:47:05;;;;;;;5.38;3.05;;;;;;;;;;4995652;28;20019;-74
2022/06/17 01:49:37;;;;;;;6.15;3.40;;;;;;;;;;4995634;28;20038;-65
2022/06/17 01:52:12;;;;;;;4.85;2.70;;;;;;;;;;4994282;28;20027;-64
2022/06/17 01:54:50;;;;;;;6.13;3.00;;;;;;;;;;4995537;28;20184;-66
2022/06/17 01:57:20;;;;;;;10.25;3.28;;;;;;;;;;4995517;28;20421;-65
2022/06/17 01:59:51;;;;;;;7.55;3.40;;;;;;;;;;4995797;28;20098;-66
2022/06/17 02:02:18;;;;;;;9.43;3.30;;;;;;;;;;4995529;28;20117;-64
2022/06/17 02:04:48;;;;;;;5.25;3.28;;;;;;;;;;4995233;28;20030;-65
2022/06/17 02:07:21;;;;;;;6.28;2.92;;;;;;;;;;4995379;28;20022;-66
2022/06/17 02:09:48;;;;;;;12.32;3.22;;;;;;;;;;4995388;28;20030;-64
2022/06/17 02:12:16;;;;;;;6.50;2.83;;;;;;;;;;4995419;28;20464;-67
2022/06/17 02:14:43;;;;;;;5.22;2.80;;;;;;;;;;4995097;28;20183;-66
2022/06/17 02:17:09;;;;;;;5.85;2.80;;;;;;;;;;4994740;28;20037;-65
2022/06/17 02:19:37;;;;;;;3.97;2.75;;;;;;;;;;4994757;28;20038;-68
2022/06/17 02:22:24;;;;;;;5.25;3.30;;;;;;;;;;4995009;28;20034;-67
2022/06/17 02:24:56;;;;;;;4.63;2.80;;;;;;;;;;4995157;28;20027;-65
2022/06/17 02:27:23;;;;;;;6.90;2.78;;;;;;;;;;4995067;28;20058;-70
2022/06/17 02:29:50;;;;;;;6.88;3.33;;;;;;;;;;4994943;28;20113;-68
2022/06/17 02:32:16;;;;;;;5.20;3.17;;;;;;;;;;4994964;28;20154;-65
2022/06/17 02:35:01;;;;;;;8.25;3.30;;;;;;;;;;4994769;28;20071;-67
2022/06/17 02:37:29;;;;;;;7.22;3.15;;;;;;;;;;4994606;28;20101;-66
2022/06/17 02:39:57;;;;;;;6.30;3.80;;;;;;;;;;4994230;28;20031;-66
2022/06/17 02:42:33;;;;;;;8.75;3.72;;;;;;;;;;4994686;28;20471;-68
2022/06/17 02:45:14;;;;;;;10.95;4.15;;;;;;;;;;4994444;28;20033;-65
2022/06/17 02:47:40;;;;;;;7.80;3.13;;;;;;;;;;4994622;28;20112;-67
2022/06/17 02:50:06;;;;;;;11.05;3.95;;;;;;;;;;4994508;28;20173;-66
2022/06/17 02:52:38;;;;;;;16.02;4.68;;;;;;;;;;4994257;28;20434;-72
2022/06/17 02:55:12;;;;;;;12.73;3.88;;;;;;;;;;4994436;28;20048;-71
2022/06/17 02:57:39;;;;;;;6.60;3.95;;;;;;;;;;4994290;28;20052;-65
2022/06/17 03:00:15;;;;;;;11.20;4.57;;;;;;;;;;4994453;28;20027;-65
2022/06/17 03:02:46;;;;;;;15.00;4.60;;;;;;;;;;4993946;28;20030;-72
2022/06/17 03:05:25;;;;;;;7.93;4.45;;;;;;;;;;4994195;28;20022;-71
2022/06/17 03:07:51;;;;;;;11.48;4.97;;;;;;;;;;4994211;28;20381;-69
2022/06/17 03:10:22;;;;;;;7.78;4.45;;;;;;;;;;4994318;28;20022;-70
2022/06/17 03:12:51;;;;;;;;;;;;;;;;;;4994529;28;20476;-72
2022/06/17 03:15:19;;;;;;;7.28;4.47;;;;;;;;;;4994006;28;19921;-72
2022/06/17 03:17:45;;;;;;;6.43;4.60;;;;;;;;;;4993597;28;20048;-72
2022/06/17 03:20:20;;;;;;;9.38;5.10;;;;;;;;;;4994177;28;20068;-72
2022/06/17 03:22:49;;;;;;;10.75;4.50;;;;;;;;;;4994023;28;20029;-70
2022/06/17 03:25:19;;;;;;;9.65;4.10;;;;;;;;;;4993973;28;20117;-71
2022/06/17 03:27:51;;;;;;;7.65;4.05;;;;;;;;;;4993962;28;20037;-72
2022/06/17 03:30:32;;;;;;;12.75;4.30;;;;;;;;;;4993973;28;20025;-71
2022/06/17 03:33:10;;;;;;;12.57;3.92;;;;;;;;;;4992421;28;20368;-66
2022/06/17 03:35:37;;;;;;;14.23;4.65;;;;;;;;;;4993691;28;20447;-71
2022/06/17 03:38:18;;;;;;;22.10;5.22;;;;;;;;;;4993753;28;20033;-72
2022/06/17 03:40:47;;;;;;;;;;;;;;;;;;4994233;28;20038;-72
2022/06/17 03:43:54;;;;;;;10.60;4.10;;;;;;;;;;4993579;28;19921;-72
2022/06/17 03:46:24;;;;;;;8.02;4.60;;;;;;;;;;4955639;28;20031;-68
2022/06/17 03:49:06;;;;;;;13.00;4.72;;;;;;;;;;4971835;28;20429;-70
2022/06/17 03:51:35;;;;;;;9.95;4.13;;;;;;;;;;4972134;28;20125;-68
2022/06/17 03:54:01;;;;;;;8.20;4.17;;;;;;;;;;4971802;28;20042;-72
2022/06/17 03:56:39;;;;;;;14.30;5.03;;;;;;;;;;4971939;28;20359;-71
2022/06/17 03:59:11;;;;;;;9.65;4.32;;;;;;;;;;4972076;28;20497;-66
2022/06/17 04:01:46;;;;;;;8.52;4.57;;;;;;;;;;4971714;28;20170;-70
2022/06/17 04:04:25;;;;;;;7.00;4.03;;;;;;;;;;4971705;28;20389;-69
2022/06/17 04:06:53;;;;;;;8.00;3.75;;;;;;;;;;4971963;28;20479;-66
2022/06/17 04:09:21;;;;;;;15.15;4.97;;;;;;;;;;4971719;28;20031;-72
2022/06/17 04:11:54;;;;;;;8.77;4.10;;;;;;;;;;4971826;28;20066;-69
2022/06/17 04:14:28;;;;;;;6.28;4.10;;;;;;;;;;4971731;28;20113;-73
2022/06/17 04:17:00;;;;;;;7.03;3.78;;;;;;;;;;4981132;28;20832;-70
2022/06/17 04:19:28;;;;;;;9.90;4.15;;;;;;;;;;4993136;28;20030;-68
2022/06/17 04:22:02;;;;;;;6.68;4.22;;;;;;;;;;4993340;28;20027;-70
2022/06/17 04:24:29;;;;;;;9.60;4.00;;;;;;;;;;4993342;28;20026;-67
2022/06/17 04:27:01;;;;;;;8.25;4.20;;;;;;;;;;4993079;28;20057;-68
2022/06/17 04:29:37;;;;;;;12.98;4.85;;;;;;;;;;4993133;28;20026;-68
2022/06/17 04:32:12;;;;;;;7.20;4.40;;;;;;;;;;4993254;28;20356;-72
2022/06/17 04:34:37;;;;;;;6.30;4.10;;;;;;;;;;4993142;28;20388;-67
2022/06/17 04:37:06;;;;;;;7.72;4.43;;;;;;;;;;4992830;28;20019;-69
2022/06/17 04:39:38;;;;;;;7.70;4.20;;;;;;;;;;4992939;28;20026;-68
2022/06/17 04:42:43;;;;;;;8.52;4.93;;;;;;;;;;4993070;28;20026;-70
2022/06/17 04:45:23;;;;;;;11.20;4.88;;;;;;;;;;4971321;28;20497;-72
2022/06/17 04:47:49;;;;;;;9.57;4.38;;;;;;;;;;4971394;28;20034;-72
2022/06/17 04:50:18;;;;;;;10.93;4.55;;;;;;;;;;4971559;28;20034;-67
2022/06/17 04:52:47;;;;;;;10.10;5.22;;;;;;;;;;4971284;28;20044;-67
2022/06/17 04:55:18;;;;;;;7.60;4.43;;;;;;;;;;4971576;28;20042;-67
2022/06/17 04:57:43;;;;;;;;;;;;;;;;;;4971943;28;20039;-64
2022/06/17 05:00:21;;;;;;;5.65;4.00;;;;;;;;;;4971216;28;19925;-64
2022/06/17 05:02:47;;;;;;;8.57;4.30;;;;;;;;;;4957498;28;20123;-63
2022/06/17 05:05:19;;;;;;;8.48;5.00;;;;;;;;;;4974922;28;20110;-65
2022/06/17 05:07:48;;;;;;;5.80;4.40;;;;;;;;;;4974929;28;20472;-67
2022/06/17 05:10:22;;;;;;;12.43;4.90;;;;;;;;;;4974986;28;20374;-65
2022/06/17 05:13:08;;;;;;;9.25;4.63;;;;;;;;;;4974741;28;20377;-69
2022/06/17 05:15:35;;;;;;;10.77;5.80;;;;;;;;;;4936169;29;20094;-67
2022/06/17 05:18:02;;;;;;;10.63;4.78;;;;;;;;;;4935853;29;20061;-64
2022/06/17 05:20:27;;;;;;;11.48;4.50;;;;;;;;;;4936212;29;20036;-66
2022/06/17 05:23:00;;;;;;;8.98;4.57;;;;;;;;;;4936231;29;20366;-66
2022/06/17 05:25:30;;;;;;;9.13;4.50;;;;;;;;;;4936304;29;20028;-71
2022/06/17 05:27:56;;;;;;;14.67;4.53;;;;;;;;;;4935808;29;20040;-71
2022/06/17 05:30:22;;;;;;;12.07;4.32;;;;;;;;;;4936185;29;20615;-67
2022/06/17 05:32:51;;;;;;;7.43;4.40;;;;;;;;;;4935949;29;20039;-67
2022/06/17 05:35:17;;;;;;;7.07;3.83;;;;;;;;;;4935934;29;20087;-68
2022/06/17 05:37:42;;;;;;;10.20;4.40;;;;;;;;;;4935876;29;20027;-65
2022/06/17 05:40:09;;;;;;;8.70;4.20;;;;;;;;;;4935710;29;20043;-70
2022/06/17 05:42:36;;;;;;;10.15;4.35;;;;;;;;;;4935512;29;20603;-70
2022/06/17 05:45:02;;;;;;;11.95;3.83;;;;;;;;;;4935936;29;20063;-67
2022/06/17 05:47:27;;;;;;;7.18;3.83;;;;;;;;;;4935723;29;20063;-69
2022/06/17 05:49:53;;;;;;;9.68;3.70;;;;;;;;;;4935657;29;20056;-71
2022/06/17 05:52:19;;;;;;;7.95;3.80;;;;;;;;;;4957429;28;20045;-68
2022/06/17 05:54:45;;;;;;;6.90;3.30;;;;;;;;;;4995628;28;20033;-71
2022/06/17 05:57:11;;;;;;;6.90;3.92;;;;;;;;;;4995333;28;20026;-69
2022/06/17 05:59:37;;;;;;;10.52;3.67;;;;;;;;;;4995636;28;20019;-67
2022/06/17 06:02:03;;;;;;;7.88;3.70;;;;;;;;;;4995467;28;20031;-69
2022/06/17 06:04:31;;;;;;;7.55;3.58;;;;;;;;;;4995173;28;20105;-69
2022/06/17 06:06:57;;;;;;;12.10;3.17;;;;;;;;;;4995420;28;20032;-68
2022/06/17 06:09:23;;;;;;;9.82;3.47;;;;;;;;;;4995541;28;20034;-71
2022/06/17 06:11:48;;;;;;;6.22;3.42;;;;;;;;;;4995169;28;20511;-70
2022/06/17 06:14:14;;;;;;;8.25;3.00;;;;;;;;;;4994101;28;20443;-69
2022/06/17 06:16:39;;;;;;;6.55;3.03;;;;;;;;;;4994684;28;20039;-69
2022/06/17 06:19:05;;;;;;;5.68;3.40;;;;;;;;;;4995006;28;20026;-71
2022/06/17 06:21:31;;;;;;;6.55;2.90;;;;;;;;;;4995018;28;20113;-69
2022/06/17 06:23:56;;;;;;;7.20;3.22;;;;;;;;;;4995104;28;20487;-70
2022/06/17 06:26:23;;;;;;;5.15;2.90;;;;;;;;;;4994889;28;20030;-66
2022/06/17 06:28:49;;;;;;;11.15;3.22;;;;;;;;;;4994718;28;20027;-71
2022/06/17 06:31:17;;;;;;;7.30;2.80;;;;;;;;;;4993597;28;20025;-69
2022/06/17 06:33:42;;;;;;;6.85;2.90;;;;;;;;;;4994973;28;20034;-67
2022/06/17 06:36:08;;;;;;;8.85;3.00;;;;;;;;;;4994789;28;20022;-70
2022/06/17 06:38:33;;;;;;;6.75;2.67;;;;;;;;;;4994890;28;20026;-71
2022/06/17 06:41:01;;;;;;;6.50;2.50;;;;;;;;;;4994564;28;20026;-70
2022/06/17 06:43:26;;;;;;;5.75;2.70;;;;;;;;;;4994821;28;20468;-68
2022/06/17 06:45:52;;;;;;;7.65;2.55;;;;;;;;;;4994294;28;20038;-70
2022/06/17 06:48:23;;;;;;;7.35;2.45;;;;;;;;;;4994664;28;20030;-68
2022/06/17 06:50:49;;;;;;;7.90;2.55;;;;;;;;;;4993344;28;20041;-70
2022/06/17 06:53:15;;;;;;;8.02;2.60;;;;;;;;;;4993237;28;20033;-71
2022/06/17 06:55:41;;;;;;;7.40;2.45;;;;;;;;;;4994183;28;20072;-69
2022/06/17 06:58:13;;;;;;;6.22;2.50;;;;;;;;;;4994355;28;20042;-70
2022/06/17 07:00:42;;;;;;;4.93;2.05;;;;;;;;;;4994187;28;20365;-70
2022/06/17 07:03:07;;;;;;;7.53;2.17;;;;;;;;;;4994166;28;20089;-70
2022/06/17 07:05:36;;;;;;;8.07;2.00;;;;;;;;;;4994072;28;20037;-70
2022/06/17 07:08:01;;;;;;;4.85;1.95;;;;;;;;;;4994342;28;20448;-71
2022/06/17 07:10:32;;;;;;;5.63;2.28;;;;;;;;;;4994159;28;20033;-71
2022/06/17 07:12:58;;;;;;;4.10;1.83;;;;;;;;;;4994121;28;20077;-70
2022/06/17 07:15:24;;;;;;;9.25;1.88;;;;;;;;;;4994263;28;20053;-71
2022/06/17 07:17:55;;;;;;;7.70;2.22;;;;;;;;;;4993091;28;20050;-68
2022/06/17 07:20:22;;;;;;;4.75;2.10;;;;;;;;;;4993384;28;20377;-70
2022/06/17 07:22:47;;;;;;;5.45;1.90;;;;;;;;;;4993319;28;20452;-72
2022/06/17 07:25:13;;;;;;;4.03;1.70;;;;;;;;;;4992552;28;20026;-68
2022/06/17 07:27:38;;;;;;;6.40;2.03;;;;;;;;;;4993194;28;20022;-69
2022/06/17 07:30:04;;;;;;;5.68;2.10;;;;;;;;;;4992993;28;20034;-69
2022/06/17 07:32:30;;;;;;;5.13;1.85;;;;;;;;;;4993109;28;20026;-69
2022/06/17 07:34:55;;;;;;;6.53;2.10;;;;;;;;;;4993151;28;20034;-69
2022/06/17 07:40:05;;;;;;;8.07;1.95;;;;;;;;;;4992885;28;20076;-70
2022/06/17 07:42:40;;;;;;;9.15;3.15;;;;;;;;;;4992852;28;20049;-70
2022/06/17 07:45:12;;;;;;;4.95;1.95;;;;;;;;;;4992819;28;20030;-71
2022/06/17 07:47:40;;;;;;;5.88;2.28;;;;;;;;;;4992857;28;20026;-70
2022/06/17 07:50:07;;;;;;;7.45;2.10;;;;;;;;;;4992670;28;20040;-71
2022/06/17 07:52:33;;;;;;;4.70;2.00;;;;;;;;;;4991285;28;20023;-69
2022/06/17 07:54:58;;;;;;;4.28;1.80;;;;;;;;;;4992725;28;20022;-71
2022/06/17 07:57:24;;;;;;;7.90;1.75;;;;;;;;;;4992629;28;20026;-71
2022/06/17 07:59:50;;;;;;;4.70;2.00;;;;;;;;;;4992875;28;20029;-71
2022/06/17 08:02:15;;;;;;;8.85;1.88;;;;;;;;;;4992726;28;20052;-68
2022/06/17 08:04:41;;;;;;;5.35;2.03;;;;;;;;;;4991113;28;20057;-71
2022/06/17 08:07:07;;;;;;;3.80;1.83;;;;;;;;;;4992328;28;20030;-71
2022/06/17 08:09:33;;;;;;;6.63;1.73;;;;;;;;;;4992449;28;20440;-71
2022/06/17 08:11:58;;;;;;;4.63;1.75;;;;;;;;;;4992595;28;20038;-68
2022/06/17 08:14:24;;;;;;;7.13;1.90;;;;;;;;;;4992689;28;20081;-69
2022/06/17 08:16:50;;;;;;;7.18;1.65;;;;;;;;;;4939814;28;1522917;-70
2022/06/17 08:19:16;;;;;;;5.38;1.88;;;;;;;;;;4993334;28;20039;-67
2022/06/17 08:21:41;;;;;;;6.80;2.10;;;;;;;;;;4992853;28;20073;-70
2022/06/17 08:24:08;;;;;;;3.40;1.80;;;;;;;;;;4993409;28;20023;-72
2022/06/17 08:26:34;;;;;;;5.10;2.00;;;;;;;;;;4992976;28;20026;-70
2022/06/17 08:29:00;;;;;;;8.98;2.38;;;;;;;;;;4992969;28;20033;-71
2022/06/17 08:31:26;;;;;;;12.00;1.95;;;;;;;;;;4993214;28;20026;-72
2022/06/17 08:33:52;;;;;;;4.47;1.98;;;;;;;;;;4992966;28;20032;-71
2022/06/17 08:36:21;;;;;;;3.60;1.77;;;;;;;;;;4993204;28;20065;-71
2022/06/17 08:38:53;;;;;;;3.67;1.67;;;;;;;;;;4996916;28;20468;-70
2022/06/17 08:41:34;;;;;;;4.00;1.85;;;;;;;;;;4996950;28;20109;-71
2022/06/17 08:44:19;;;;;;;7.07;2.00;;;;;;;;;;4995623;28;20076;-70
2022/06/17 08:47:01;;;;;;;6.68;2.15;;;;;;;;;;4996848;28;20026;-65
2022/06/17 08:49:27;;;;;;;9.20;2.40;;;;;;;;;;4996988;28;20022;-65
2022/06/17 08:51:52;;;;;;;5.75;1.77;;;;;;;;;;4996370;28;20141;-64
2022/06/17 08:54:53;;;;;;;6.40;1.80;;;;;;;;;;4996836;28;20030;-65
2022/06/17 08:57:36;;;;;;;4.75;1.90;;;;;;;;;;4996693;28;20026;-69
2022/06/17 09:00:11;;;;;;;6.88;1.85;;;;;;;;;;4996833;28;20034;-65
2022/06/17 09:03:10;;;;;;;6.22;1.67;;;;;;;;;;4996518;28;20053;-70
2022/06/17 09:05:43;;;;;;;3.22;1.70;;;;;;;;;;4994906;28;20081;-68
2022/06/17 09:08:30;;;;;;;5.32;2.10;;;;;;;;;;4996027;28;20049;-71
2022/06/17 09:11:01;;;;;;;4.07;1.70;;;;;;;;;;4996390;28;20023;-71
2022/06/17 09:13:54;;;;;;;5.32;1.50;;;;;;;;;;4996248;28;20553;-69
2022/06/17 09:16:33;;;;;;;5.50;2.28;;;;;;;;;;4996246;28;20046;-72
2022/06/17 09:19:02;;;;;;;7.60;2.10;;;;;;;;;;4996366;28;20041;-69
2022/06/17 09:21:41;;;;;;;5.78;1.70;;;;;;;;;;4995912;28;20176;-67
2022/06/17 09:24:08;;;;;;;6.32;2.20;;;;;;;;;;4996259;28;20523;-70
2022/06/17 09:26:52;;;;;;;4.15;1.85;;;;;;;;;;4996169;28;20022;-69
2022/06/17 09:29:56;;;;;;;3.75;1.60;;;;;;;;;;4996060;28;20022;-69
2022/06/17 09:32:31;;;;;;;5.68;1.77;;;;;;;;;;4974356;28;20022;-71
2022/06/17 09:35:14;;;;;;;5.32;1.70;;;;;;;;;;4974324;28;20118;-71
2022/06/17 09:37:51;;;;;;;4.03;1.60;;;;;;;;;;4974394;28;20381;-65
2022/06/17 09:40:30;;;;;;;3.60;1.63;;;;;;;;;;4974301;28;20370;-71
2022/06/17 09:42:58;;;;;;;5.37;2.10;;;;;;;;;;4974239;28;20035;-71
2022/06/17 09:45:32;;;;;;;5.25;1.73;;;;;;;;;;4974303;28;20038;-72
2022/06/17 09:48:01;;;;;;;4.00;1.83;;;;;;;;;;4974233;28;20540;-70
2022/06/17 09:50:57;;;;;;;3.55;1.70;;;;;;;;;;4974110;28;20030;-68
2022/06/17 09:53:38;;;;;;;9.05;1.67;;;;;;;;;;4963766;28;20034;-71
2022/06/17 09:56:20;;;;;;;10.00;1.70;;;;;;;;;;4973943;28;20062;-71
2022/06/17 09:58:54;;;;;;;4.72;1.58;;;;;;;;;;4973656;28;20151;-70
2022/06/17 10:01:20;;;;;;;8.82;1.80;;;;;;;;;;4957600;28;20039;-65
2022/06/17 10:03:45;;;;;;;5.13;1.60;;;;;;;;;;4973716;28;20031;-70
2022/06/17 10:06:14;;;;;;;5.00;2.00;;;;;;;;;;4983111;28;20053;-65
2022/06/17 10:08:54;;;;;;;5.25;1.80;;;;;;;;;;4995319;28;20084;-71
2022/06/17 10:11:55;;;;;;;3.53;1.80;;;;;;;;;;4995424;28;20392;-66
2022/06/17 10:14:41;;;;;;;4.30;1.42;;;;;;;;;;4995449;28;20463;-70
2022/06/17 10:20:09;;;;;;;3.67;1.60;;;;;;;;;;4995229;28;20037;-66
2022/06/17 10:22:55;;;;;;;3.53;1.52;;;;;;;;;;4995289;28;20026;-67
2022/06/17 10:25:41;;;;;;;6.00;1.50;;;;;;;;;;4994982;28;20031;-70
2022/06/17 10:28:25;;;;;;;8.40;1.80;;;;;;;;;;4995049;28;20109;-65
2022/06/17 10:30:58;;;;;;;7.03;1.50;;;;;;;;;;4995054;28;20022;-65
2022/06/17 10:33:25;;;;;;;3.03;1.35;;;;;;;;;;4994535;28;20111;-68
2022/06/17 10:35:51;;;;;;;5.53;1.40;;;;;;;;;;4994671;28;20495;-69
2022/06/17 10:38:20;;;;;;;6.63;1.52;;;;;;;;;;4994921;28;20033;-65
2022/06/17 10:40:47;;;;;;;2.80;1.23;;;;;;;;;;4994497;28;20596;-65
2022/06/17 10:43:23;;;;;;;3.10;1.55;;;;;;;;;;4994561;28;20031;-66
2022/06/17 10:45:49;;;;;;;4.30;1.90;;;;;;;;;;4994706;28;20116;-71
2022/06/17 10:48:36;;;;;;;5.78;2.30;;;;;;;;;;4994445;28;20415;-71
2022/06/17 10:51:05;;;;;;;10.65;1.95;;;;;;;;;;4994534;28;20038;-67
2022/06/17 10:53:47;;;;;;;3.05;1.40;;;;;;;;;;4994492;28;20040;-68
2022/06/17 10:56:19;;;;;;;6.63;1.30;;;;;;;;;;4994435;28;20026;-67
2022/06/17 10:59:00;;;;;;;3.78;1.50;;;;;;;;;;4994333;28;20034;-66
2022/06/17 11:01:45;;;;;;;2.78;1.48;;;;;;;;;;4994154;28;20057;-65
2022/06/17 11:04:18;;;;;;;10.48;1.65;;;;;;;;;;4993313;28;20068;-67
2022/06/17 11:06:49;;;;;;;4.43;1.33;;;;;;;;;;4994202;28;20384;-65
2022/06/17 11:09:21;;;;;;;3.65;1.70;;;;;;;;;;4994031;28;20469;-65
2022/06/17 11:12:05;;;;;;;2.88;1.38;;;;;;;;;;4992959;28;20030;-68
2022/06/17 11:14:53;;;;;;;3.83;1.60;;;;;;;;;;4993956;28;20038;-65
2022/06/17 11:17:43;;;;;;;5.53;1.25;;;;;;;;;;4993534;28;20534;-64
2022/06/17 11:20:17;;;;;;;;;;;;;;;;;;4994633;28;20084;-65
2022/06/17 11:23:06;;;;;;;5.65;1.40;;;;;;;;;;4993790;28;19917;-68
2022/06/17 11:25:32;;;;;;;2.67;1.20;;;;;;;;;;4994095;28;20395;-64
2022/06/17 11:28:18;;;;;;;3.53;1.20;;;;;;;;;;4994091;28;20129;-72
2022/06/17 11:31:00;;;;;;;6.25;1.50;;;;;;;;;;4989651;28;20050;-65
2022/06/17 11:33:35;;;;;;;6.55;2.33;;;;;;;;;;4992655;28;20537;-64
2022/06/17 11:36:06;;;;;;;4.10;1.42;;;;;;;;;;4993645;28;20483;-64
2022/06/17 11:38:33;;;;;;;5.38;1.23;;;;;;;;;;4993634;28;20034;-65
2022/06/17 11:41:00;;;;;;;3.33;1.20;;;;;;;;;;4993683;28;20097;-66
2022/06/17 11:43:32;;;;;;;4.57;1.50;;;;;;;;;;4993746;28;20106;-65
2022/06/17 11:46:06;;;;;;;3.05;1.40;;;;;;;;;;4993318;28;20031;-65
2022/06/17 11:48:32;;;;;;;4.85;1.30;;;;;;;;;;4993635;28;20498;-71
2022/06/17 11:51:07;;;;;;;3.90;1.33;;;;;;;;;;4993760;28;20030;-66
2022/06/17 11:53:47;;;;;;;2.90;1.40;;;;;;;;;;4993436;28;20381;-71
2022/06/17 11:56:30;;;;;;;4.28;1.45;;;;;;;;;;4993317;28;20022;-69
2022/06/17 11:59:19;;;;;;;6.30;1.40;;;;;;;;;;4993346;28;20421;-71
2022/06/17 12:01:53;;;;;;;3.53;1.40;;;;;;;;;;4993503;28;20027;-65
2022/06/17 12:04:43;;;;;;;3.45;1.13;;;;;;;;;;4993428;28;20023;-69
2022/06/17 12:07:44;;;;;;;2.47;1.20;;;;;;;;;;4993316;28;20018;-65
2022/06/17 12:10:49;;;;;;;5.50;1.45;;;;;;;;;;4971758;28;20496;-66
2022/06/17 12:13:40;;;;;;;2.88;1.15;;;;;;;;;;4971783;28;20113;-70
2022/06/17 12:16:14;;;;;;;2.42;1.25;;;;;;;;;;4971521;28;20035;-63
2022/06/17 12:18:48;;;;;;;2.85;1.40;;;;;;;;;;4955484;28;20070;-70
2022/06/17 12:21:32;;;;;;;2.58;1.02;;;;;;;;;;4971778;28;20089;-66
2022/06/17 12:24:31;;;;;;;3.03;1.08;;;;;;;;;;4971754;28;20035;-67
2022/06/17 12:27:02;;;;;;;6.47;1.40;;;;;;;;;;4971810;28;20066;-65
2022/06/17 12:29:43;;;;;;;3.33;1.20;;;;;;;;;;4971396;28;20031;-70
2022/06/17 12:32:21;;;;;;;3.13;1.23;;;;;;;;;;4971711;28;20031;-65
2022/06/17 12:34:54;;;;;;;5.10;1.20;;;;;;;;;;4971484;28;20050;-66
2022/06/17 12:37:31;;;;;;;3.00;1.10;;;;;;;;;;4971642;28;20058;-73
2022/06/17 12:40:08;;;;;;;5.20;1.38;;;;;;;;;;4971456;28;20543;-65
2022/06/17 12:42:42;;;;;;;3.35;1.30;;;;;;;;;;4971224;28;20129;-71
2022/06/17 12:45:20;;;;;;;3.33;1.30;;;;;;;;;;4971518;28;20062;-71
2022/06/17 12:47:51;;;;;;;3.22;1.15;;;;;;;;;;4990624;28;20124;-72
2022/06/17 12:53:44;;;;;;;2.53;1.20;;;;;;;;;;4993283;28;20106;-70
2022/06/17 12:56:27;;;;;;;5.00;1.20;;;;;;;;;;4992879;28;20026;-69
2022/06/17 12:59:08;;;;;;;4.30;1.10;;;;;;;;;;4992874;28;20027;-66
2022/06/17 13:01:39;;;;;;;3.55;1.20;;;;;;;;;;4992719;28;20027;-68
2022/06/17 13:04:29;;;;;;;3.28;1.20;;;;;;;;;;4993011;28;20022;-70
2022/06/17 13:07:13;;;;;;;6.18;1.77;;;;;;;;;;4992848;28;20105;-71
2022/06/17 13:13:01;;;;;;;5.72;1.70;;;;;;;;;;4992679;28;20041;-65
2022/06/17 13:15:32;;;;;;;3.35;1.60;;;;;;;;;;4992900;28;20027;-67
2022/06/17 13:18:26;;;;;;;3.58;1.80;;;;;;;;;;4992241;28;20046;-67
2022/06/17 13:21:07;;;;;;;7.05;2.13;;;;;;;;;;4989722;28;20503;-70
2022/06/17 13:23:55;;;;;;;6.85;1.73;;;;;;;;;;4994766;28;20038;-69
2022/06/17 13:26:25;;;;;;;5.43;1.80;;;;;;;;;;4996185;28;20050;-65
2022/06/17 13:28:57;;;;;;;;;;;;;;;;;;4996590;28;20250;-71
2022/06/17 13:31:50;;;;;;;6.32;2.10;;;;;;;;;;4995942;28;20383;-64
2022/06/17 13:34:42;;;;;;;3.78;1.63;;;;;;;;;;4993023;28;20122;-68
2022/06/17 13:37:13;;;;;;;7.13;1.90;;;;;;;;;;4995629;28;20039;-66
2022/06/17 13:39:44;;;;;;;6.53;2.03;;;;;;;;;;4996190;28;20044;-64
2022/06/17 13:42:13;;;;;;;5.00;1.73;;;;;;;;;;4995595;28;20026;-68
2022/06/17 13:44:58;;;;;;;4.45;1.90;;;;;;;;;;4995803;28;20022;-67
2022/06/17 13:47:52;;;;;;;5.82;1.70;;;;;;;;;;4995752;28;20041;-71
2022/06/17 13:50:24;;;;;;;6.20;1.52;;;;;;;;;;4994364;28;20088;-65
2022/06/17 13:52:56;;;;;;;5.20;2.13;;;;;;;;;;4995450;28;20030;-65
2022/06/17 13:55:39;;;;;;;7.55;2.00;;;;;;;;;;4995207;28;20499;-63
2022/06/17 13:58:14;;;;;;;5.40;1.80;;;;;;;;;;4995591;28;20030;-63
2022/06/17 14:00:43;;;;;;;6.88;2.38;;;;;;;;;;4995532;28;20032;-63
2022/06/17 14:03:13;;;;;;;9.88;2.50;;;;;;;;;;4995533;28;20034;-67
2022/06/17 14:06:04;;;;;;;5.22;2.40;;;;;;;;;;4995431;28;20030;-68
2022/06/17 14:08:54;;;;;;;5.35;1.63;;;;;;;;;;4995092;28;20027;-67
2022/06/17 14:11:34;;;;;;;4.05;1.98;;;;;;;;;;4995030;28;20109;-70
2022/06/17 14:14:18;;;;;;;4.97;2.00;;;;;;;;;;4995356;28;20030;-66
2022/06/17 14:17:30;;;;;;;6.72;1.83;;;;;;;;;;4994438;28;20408;-70
2022/06/17 14:20:13;;;;;;;5.70;1.60;;;;;;;;;;4992194;28;20129;-71
2022/06/17 14:23:04;;;;;;;5.85;1.60;;;;;;;;;;4995213;28;20506;-69
2022/06/17 14:25:57;;;;;;;4.55;1.90;;;;;;;;;;4995004;28;20034;-72
2022/06/17 14:28:30;;;;;;;4.35;2.10;;;;;;;;;;4994808;28;20101;-71
2022/06/17 14:31:13;;;;;;;3.72;1.92;;;;;;;;;;4995096;28;20023;-71
2022/06/17 14:34:11;;;;;;;5.53;1.75;;;;;;;;;;4994392;28;20389;-64
2022/06/17 14:36:45;;;;;;;4.88;2.00;;;;;;;;;;4990212;28;20066;-70
2022/06/17 14:39:38;;;;;;;5.57;1.80;;;;;;;;;;4994604;28;20034;-71
2022/06/17 14:42:13;;;;;;;4.65;1.80;;;;;;;;;;4994454;28;20097;-67
2022/06/17 14:44:43;;;;;;;5.43;1.80;;;;;;;;;;4994819;28;20380;-66
2022/06/17 14:47:19;;;;;;;3.40;1.50;;;;;;;;;;4994843;28;20046;-65
2022/06/17 14:50:34;;;;;;;4.78;2.00;;;;;;;;;;4994595;28;20384;-65
2022/06/17 14:52:59;;;;;;;6.72;1.70;;;;;;;;;;4964407;28;20043;-69
2022/06/17 14:55:26;;;;;;;7.97;1.92;;;;;;;;;;4973032;28;20475;-70
2022/06/17 14:57:54;;;;;;;3.92;1.70;;;;;;;;;;4972793;28;20046;-65
2022/06/17 15:00:23;;;;;;;5.82;1.85;;;;;;;;;;4973030;28;20034;-66
2022/06/17 15:02:54;;;;;;;3.97;1.60;;;;;;;;;;4972666;28;20031;-65
2022/06/17 15:05:25;;;;;;;6.35;1.80;;;;;;;;;;4972814;28;20038;-72
2022/06/17 15:08:09;;;;;;;11.05;2.58;;;;;;;;;;4972618;28;20034;-72
2022/06/17 15:10:35;;;;;;;2.67;1.35;;;;;;;;;;4972826;28;20054;-67
2022/06/17 15:16:05;;;;;;;3.10;1.27;;;;;;;;;;4972872;28;20101;-68
2022/06/17 15:18:37;;;;;;;3.50;1.23;;;;;;;;;;4972484;28;20043;-72
2022/06/17 15:21:10;;;;;;;2.72;1.10;;;;;;;;;;4972734;28;20058;-68
2022/06/17 15:23:49;;;;;;;2.45;1.15;;;;;;;;;;4972325;28;20129;-67
2022/06/17 15:26:19;;;;;;;1.77;0.75;;;;;;;;;;4972513;28;20416;-67
2022/06/17 15:28:56;;;;;;;3.30;1.15;;;;;;;;;;4975598;28;20137;-64
2022/06/17 15:31:27;;;;;;;6.47;1.40;;;;;;;;;;4993951;28;20570;-69
2022/06/17 15:34:04;;;;;;;4.75;1.30;;;;;;;;;;4993948;28;20030;-72
2022/06/17 15:36:46;;;;;;;3.33;1.00;;;;;;;;;;4993680;28;20446;-64
2022/06/17 15:39:17;;;;;;;1.23;0.77;;;;;;;;;;4993889;28;20471;-70